sensor_id;sensor_type;location;lat;lon;timestamp;temperature;humidity
11112;DHT22;5609;49.466;8.468;2024-03-07T00:01:27;6.80;99.90
11112;DHT22;5609;49.466;8.468;2024-03-07T00:03:57;6.80;99.90
11112;DHT22;5609;49.466;8.468;2024-03-07T00:06:24;6.80;99.90
11112;DHT22;5609;49.466;8.468;2024-03-07T00:08:51;6.70;99.90
11112;DHT22;5609;49.466;8.468;2024-03-07T00:11:18;6.70;99.90
11112;DHT22;5609;49.466;8.468;2024-03-07T00:13:47;6.70;99.90
11112;DHT22;5609;49.466;8.468;2024-03-07T00:16:14;6.50;99.90
11112;DHT22;5609;49.466;8.468;2024-03-07T00:18:41;6.50;99.90
11112;DHT22;5609;49.466;8.468;2024-03-07T00:21:08;6.40;99.90
11112;DHT22;5609;49.466;8.468;2024-03-07T00:23:34;6.30;99.90
11112;DHT22;5609;49.466;8.468;2024-03-07T00:26:01;6.30;99.90
11112;DHT22;5609;49.466;8.468;2024-03-07T00:28:28;6.40;99.90
11112;DHT22;5609;49.466;8.468;2024-03-07T00:30:59;6.40;99.90
11112;DHT22;5609;49.466;8.468;2024-03-07T00:33:27;6.40;99.90
11112;DHT22;5609;49.466;8.468;2024-03-07T00:35:54;6.50;99.90
11112;DHT22;5609;49.466;8.468;2024-03-07T00:38:21;6.50;99.90
11112;DHT22;5609;49.466;8.468;2024-03-07T00:40:48;6.40;99.90
11112;DHT22;5609;49.466;8.468;2024-03-07T00:43:15;6.50;99.90
11112;DHT22;5609;49.466;8.468;2024-03-07T00:45:42;6.50;99.90
11112;DHT22;5609;49.466;8.468;2024-03-07T00:48:10;6.60;99.90
11112;DHT22;5609;49.466;8.468;2024-03-07T00:50:37;6.60;99.90
11112;DHT22;5609;49.466;8.468;2024-03-07T00:53:07;6.70;99.90
11112;DHT22;5609;49.466;8.468;2024-03-07T00:55:34;6.70;99.90
11112;DHT22;5609;49.466;8.468;2024-03-07T00:58:01;6.80;99.90
11112;DHT22;5609;49.466;8.468;2024-03-07T01:00:30;6.90;99.90
11112;DHT22;5609;49.466;8.468;2024-03-07T01:02:57;7.00;99.90
11112;DHT22;5609;49.466;8.468;2024-03-07T01:05:25;7.00;99.90
11112;DHT22;5609;49.466;8.468;2024-03-07T01:07:52;7.00;99.90
11112;DHT22;5609;49.466;8.468;2024-03-07T01:10:21;7.10;99.90
11112;DHT22;5609;49.466;8.468;2024-03-07T01:12:48;7.10;99.90
11112;DHT22;5609;49.466;8.468;2024-03-07T01:15:16;7.20;99.90
11112;DHT22;5609;49.466;8.468;2024-03-07T01:17:43;7.20;99.90
11112;DHT22;5609;49.466;8.468;2024-03-07T01:20:11;7.20;99.90
11112;DHT22;5609;49.466;8.468;2024-03-07T01:22:40;7.20;99.90
11112;DHT22;5609;49.466;8.468;2024-03-07T01:25:07;7.20;99.90
11112;DHT22;5609;49.466;8.468;2024-03-07T01:27:34;7.20;99.90
11112;DHT22;5609;49.466;8.468;2024-03-07T01:30:01;7.20;99.90
11112;DHT22;5609;49.466;8.468;2024-03-07T01:32:28;7.20;99.90
11112;DHT22;5609;49.466;8.468;2024-03-07T01:34:55;7.20;99.90
11112;DHT22;5609;49.466;8.468;2024-03-07T01:37:22;7.20;99.90
11112;DHT22;5609;49.466;8.468;2024-03-07T01:39:50;7.10;99.90
11112;DHT22;5609;49.466;8.468;2024-03-07T01:42:17;7.10;99.90
11112;DHT22;5609;49.466;8.468;2024-03-07T01:44:46;7.10;99.90
11112;DHT22;5609;49.466;8.468;2024-03-07T01:47:15;7.10;99.90
11112;DHT22;5609;49.466;8.468;2024-03-07T01:49:42;7.10;99.90
11112;DHT22;5609;49.466;8.468;2024-03-07T01:54:38;7.10;99.90
11112;DHT22;5609;49.466;8.468;2024-03-07T01:57:07;7.10;99.90
11112;DHT22;5609;49.466;8.468;2024-03-07T01:59:34;7.10;99.90
11112;DHT22;5609;49.466;8.468;2024-03-07T02:02:02;7.20;99.90
11112;DHT22;5609;49.466;8.468;2024-03-07T02:04:29;7.10;99.90
11112;DHT22;5609;49.466;8.468;2024-03-07T02:06:58;7.20;99.90
11112;DHT22;5609;49.466;8.468;2024-03-07T02:09:25;7.20;99.90
11112;DHT22;5609;49.466;8.468;2024-03-07T02:11:52;7.10;99.90
11112;DHT22;5609;49.466;8.468;2024-03-07T02:14:21;7.10;99.90
11112;DHT22;5609;49.466;8.468;2024-03-07T02:16:48;7.10;99.90
11112;DHT22;5609;49.466;8.468;2024-03-07T02:19:16;7.10;99.90
11112;DHT22;5609;49.466;8.468;2024-03-07T02:21:45;7.00;99.90
11112;DHT22;5609;49.466;8.468;2024-03-07T02:24:11;6.90;99.90
11112;DHT22;5609;49.466;8.468;2024-03-07T02:26:39;6.80;99.90
11112;DHT22;5609;49.466;8.468;2024-03-07T02:29:06;6.70;99.90
11112;DHT22;5609;49.466;8.468;2024-03-07T02:31:33;6.60;99.90
11112;DHT22;5609;49.466;8.468;2024-03-07T02:34:04;6.60;99.90
11112;DHT22;5609;49.466;8.468;2024-03-07T02:36:33;6.40;99.90
11112;DHT22;5609;49.466;8.468;2024-03-07T02:39:01;6.30;99.90
11112;DHT22;5609;49.466;8.468;2024-03-07T02:41:28;6.30;99.90
11112;DHT22;5609;49.466;8.468;2024-03-07T02:43:54;6.20;99.90
11112;DHT22;5609;49.466;8.468;2024-03-07T02:46:21;6.20;99.90
11112;DHT22;5609;49.466;8.468;2024-03-07T02:48:48;6.10;99.90
11112;DHT22;5609;49.466;8.468;2024-03-07T02:51:15;6.10;99.90
11112;DHT22;5609;49.466;8.468;2024-03-07T02:53:41;6.00;99.90
11112;DHT22;5609;49.466;8.468;2024-03-07T02:56:10;6.00;99.90
11112;DHT22;5609;49.466;8.468;2024-03-07T02:58:37;5.90;99.90
11112;DHT22;5609;49.466;8.468;2024-03-07T03:01:04;5.80;99.90
11112;DHT22;5609;49.466;8.468;2024-03-07T03:03:31;5.80;99.90
11112;DHT22;5609;49.466;8.468;2024-03-07T03:05:59;5.80;99.90
11112;DHT22;5609;49.466;8.468;2024-03-07T03:08:26;5.80;99.90
11112;DHT22;5609;49.466;8.468;2024-03-07T03:10:54;5.60;99.90
11112;DHT22;5609;49.466;8.468;2024-03-07T03:13:23;5.70;99.90
11112;DHT22;5609;49.466;8.468;2024-03-07T03:15:53;5.60;99.90
11112;DHT22;5609;49.466;8.468;2024-03-07T03:18:19;5.60;99.90
11112;DHT22;5609;49.466;8.468;2024-03-07T03:20:46;5.50;99.90
11112;DHT22;5609;49.466;8.468;2024-03-07T03:23:13;5.50;99.90
11112;DHT22;5609;49.466;8.468;2024-03-07T03:25:40;5.50;99.90
11112;DHT22;5609;49.466;8.468;2024-03-07T03:28:09;5.50;99.90
11112;DHT22;5609;49.466;8.468;2024-03-07T03:30:38;5.40;99.90
11112;DHT22;5609;49.466;8.468;2024-03-07T03:33:06;5.30;99.90
11112;DHT22;5609;49.466;8.468;2024-03-07T03:35:33;5.30;99.90
11112;DHT22;5609;49.466;8.468;2024-03-07T03:38:00;5.30;99.90
11112;DHT22;5609;49.466;8.468;2024-03-07T03:40:27;5.20;99.90
11112;DHT22;5609;49.466;8.468;2024-03-07T03:42:54;5.10;99.90
11112;DHT22;5609;49.466;8.468;2024-03-07T03:45:22;5.10;99.90
11112;DHT22;5609;49.466;8.468;2024-03-07T03:47:52;5.10;99.90
11112;DHT22;5609;49.466;8.468;2024-03-07T03:50:19;5.00;99.90
11112;DHT22;5609;49.466;8.468;2024-03-07T03:52:47;5.00;99.90
11112;DHT22;5609;49.466;8.468;2024-03-07T03:55:14;4.90;99.90
11112;DHT22;5609;49.466;8.468;2024-03-07T03:57:43;4.90;99.90
11112;DHT22;5609;49.466;8.468;2024-03-07T04:00:11;4.90;99.90
11112;DHT22;5609;49.466;8.468;2024-03-07T04:02:39;4.90;99.90
11112;DHT22;5609;49.466;8.468;2024-03-07T04:05:08;4.90;99.90
11112;DHT22;5609;49.466;8.468;2024-03-07T04:07:36;4.90;99.90
11112;DHT22;5609;49.466;8.468;2024-03-07T04:10:03;4.80;99.90
11112;DHT22;5609;49.466;8.468;2024-03-07T04:12:32;4.80;99.90
11112;DHT22;5609;49.466;8.468;2024-03-07T04:17:26;4.80;99.90
11112;DHT22;5609;49.466;8.468;2024-03-07T04:19:53;4.70;99.90
11112;DHT22;5609;49.466;8.468;2024-03-07T04:22:21;4.70;99.90
11112;DHT22;5609;49.466;8.468;2024-03-07T04:24:48;4.70;99.90
11112;DHT22;5609;49.466;8.468;2024-03-07T04:27:19;4.70;99.90
11112;DHT22;5609;49.466;8.468;2024-03-07T04:29:48;4.60;99.90
11112;DHT22;5609;49.466;8.468;2024-03-07T04:32:15;4.60;99.90
11112;DHT22;5609;49.466;8.468;2024-03-07T04:37:09;4.60;99.90
11112;DHT22;5609;49.466;8.468;2024-03-07T04:39:38;4.50;99.90
11112;DHT22;5609;49.466;8.468;2024-03-07T04:42:06;4.50;99.90
11112;DHT22;5609;49.466;8.468;2024-03-07T04:44:34;4.50;99.90
11112;DHT22;5609;49.466;8.468;2024-03-07T04:47:02;4.50;99.90
11112;DHT22;5609;49.466;8.468;2024-03-07T04:49:31;4.50;99.90
11112;DHT22;5609;49.466;8.468;2024-03-07T04:51:59;4.50;99.90
11112;DHT22;5609;49.466;8.468;2024-03-07T04:54:27;4.40;99.90
11112;DHT22;5609;49.466;8.468;2024-03-07T04:56:56;4.40;99.90
11112;DHT22;5609;49.466;8.468;2024-03-07T05:01:50;4.40;99.90
11112;DHT22;5609;49.466;8.468;2024-03-07T05:04:18;4.20;99.90
11112;DHT22;5609;49.466;8.468;2024-03-07T05:06:45;4.20;99.90
11112;DHT22;5609;49.466;8.468;2024-03-07T05:09:13;4.20;99.90
11112;DHT22;5609;49.466;8.468;2024-03-07T05:11:49;4.20;99.90
11112;DHT22;5609;49.466;8.468;2024-03-07T05:14:19;4.20;99.90
11112;DHT22;5609;49.466;8.468;2024-03-07T05:16:46;4.10;99.90
11112;DHT22;5609;49.466;8.468;2024-03-07T05:19:28;4.10;99.90
11112;DHT22;5609;49.466;8.468;2024-03-07T05:21:55;4.00;99.90
11112;DHT22;5609;49.466;8.468;2024-03-07T05:24:22;4.00;99.90
11112;DHT22;5609;49.466;8.468;2024-03-07T05:26:49;4.00;99.90
11112;DHT22;5609;49.466;8.468;2024-03-07T05:29:16;3.90;99.90
11112;DHT22;5609;49.466;8.468;2024-03-07T05:31:46;3.90;99.90
11112;DHT22;5609;49.466;8.468;2024-03-07T05:34:13;3.90;99.90
11112;DHT22;5609;49.466;8.468;2024-03-07T05:36:40;3.80;99.90
11112;DHT22;5609;49.466;8.468;2024-03-07T05:39:11;3.80;99.90
11112;DHT22;5609;49.466;8.468;2024-03-07T05:41:38;3.80;99.90
11112;DHT22;5609;49.466;8.468;2024-03-07T05:44:05;3.80;99.90
11112;DHT22;5609;49.466;8.468;2024-03-07T05:46:34;3.80;99.90
11112;DHT22;5609;49.466;8.468;2024-03-07T05:49:04;3.70;99.90
11112;DHT22;5609;49.466;8.468;2024-03-07T05:51:30;3.70;99.90
11112;DHT22;5609;49.466;8.468;2024-03-07T05:53:57;3.60;99.90
11112;DHT22;5609;49.466;8.468;2024-03-07T05:56:24;3.60;99.90
11112;DHT22;5609;49.466;8.468;2024-03-07T05:58:51;3.70;99.90
11112;DHT22;5609;49.466;8.468;2024-03-07T06:01:18;3.70;99.90
11112;DHT22;5609;49.466;8.468;2024-03-07T06:03:47;3.70;99.90
11112;DHT22;5609;49.466;8.468;2024-03-07T06:06:15;3.70;99.90
11112;DHT22;5609;49.466;8.468;2024-03-07T06:08:42;3.70;99.90
11112;DHT22;5609;49.466;8.468;2024-03-07T06:11:10;3.60;99.90
11112;DHT22;5609;49.466;8.468;2024-03-07T06:13:38;3.60;99.90
11112;DHT22;5609;49.466;8.468;2024-03-07T06:16:05;3.60;99.90
11112;DHT22;5609;49.466;8.468;2024-03-07T06:18:33;3.60;99.90
11112;DHT22;5609;49.466;8.468;2024-03-07T06:21:00;3.70;99.90
11112;DHT22;5609;49.466;8.468;2024-03-07T06:23:31;3.70;99.90
11112;DHT22;5609;49.466;8.468;2024-03-07T06:25:58;3.80;99.90
11112;DHT22;5609;49.466;8.468;2024-03-07T06:28:26;3.80;99.90
11112;DHT22;5609;49.466;8.468;2024-03-07T06:30:54;3.80;99.90
11112;DHT22;5609;49.466;8.468;2024-03-07T06:33:21;3.90;99.90
11112;DHT22;5609;49.466;8.468;2024-03-07T06:35:49;4.00;99.90
11112;DHT22;5609;49.466;8.468;2024-03-07T06:38:17;4.00;99.90
11112;DHT22;5609;49.466;8.468;2024-03-07T06:40:45;4.00;99.90
11112;DHT22;5609;49.466;8.468;2024-03-07T06:43:12;4.00;99.90
11112;DHT22;5609;49.466;8.468;2024-03-07T06:45:39;4.10;99.90
11112;DHT22;5609;49.466;8.468;2024-03-07T06:48:08;4.10;99.90
11112;DHT22;5609;49.466;8.468;2024-03-07T06:50:40;4.20;99.90
11112;DHT22;5609;49.466;8.468;2024-03-07T06:53:07;4.20;99.90
11112;DHT22;5609;49.466;8.468;2024-03-07T06:55:36;4.30;99.90
11112;DHT22;5609;49.466;8.468;2024-03-07T06:58:05;4.30;99.90
11112;DHT22;5609;49.466;8.468;2024-03-07T07:00:32;4.30;99.90
11112;DHT22;5609;49.466;8.468;2024-03-07T07:03:01;4.30;99.90
11112;DHT22;5609;49.466;8.468;2024-03-07T07:05:30;4.30;99.90
11112;DHT22;5609;49.466;8.468;2024-03-07T07:07:57;4.30;99.90
11112;DHT22;5609;49.466;8.468;2024-03-07T07:10:24;4.40;99.90
11112;DHT22;5609;49.466;8.468;2024-03-07T07:12:51;4.50;99.90
11112;DHT22;5609;49.466;8.468;2024-03-07T07:15:22;4.50;99.90
11112;DHT22;5609;49.466;8.468;2024-03-07T07:17:49;4.60;99.90
11112;DHT22;5609;49.466;8.468;2024-03-07T07:20:16;4.70;99.90
11112;DHT22;5609;49.466;8.468;2024-03-07T07:22:45;4.80;99.90
11112;DHT22;5609;49.466;8.468;2024-03-07T07:25:13;5.00;99.90
11112;DHT22;5609;49.466;8.468;2024-03-07T07:27:44;5.10;99.90
11112;DHT22;5609;49.466;8.468;2024-03-07T07:30:14;5.30;99.90
11112;DHT22;5609;49.466;8.468;2024-03-07T07:32:43;5.50;99.90
11112;DHT22;5609;49.466;8.468;2024-03-07T07:35:11;5.70;99.90
11112;DHT22;5609;49.466;8.468;2024-03-07T07:37:38;5.90;99.90
11112;DHT22;5609;49.466;8.468;2024-03-07T07:40:07;6.20;99.90
11112;DHT22;5609;49.466;8.468;2024-03-07T07:42:35;6.30;99.90
11112;DHT22;5609;49.466;8.468;2024-03-07T07:45:06;6.50;99.90
11112;DHT22;5609;49.466;8.468;2024-03-07T07:47:45;6.60;99.90
11112;DHT22;5609;49.466;8.468;2024-03-07T07:50:15;6.60;99.90
11112;DHT22;5609;49.466;8.468;2024-03-07T07:52:44;6.70;99.90
11112;DHT22;5609;49.466;8.468;2024-03-07T07:55:13;6.80;99.90
11112;DHT22;5609;49.466;8.468;2024-03-07T07:57:49;7.10;99.90
11112;DHT22;5609;49.466;8.468;2024-03-07T11:45:43;7.30;99.90
11112;DHT22;5609;49.466;8.468;2024-03-07T11:48:18;13.80;45.20
11112;DHT22;5609;49.466;8.468;2024-03-07T11:50:47;13.70;86.30
11112;DHT22;5609;49.466;8.468;2024-03-07T11:53:14;13.80;90.40
11112;DHT22;5609;49.466;8.468;2024-03-07T11:55:42;14.00;54.90
11112;DHT22;5609;49.466;8.468;2024-03-07T11:58:12;14.00;66.70
11112;DHT22;5609;49.466;8.468;2024-03-07T12:00:40;14.40;99.90
11112;DHT22;5609;49.466;8.468;2024-03-07T12:03:10;14.90;99.90
11112;DHT22;5609;49.466;8.468;2024-03-07T12:05:39;14.90;63.30
11112;DHT22;5609;49.466;8.468;2024-03-07T12:08:06;14.80;73.70
11112;DHT22;5609;49.466;8.468;2024-03-07T12:10:35;15.30;99.90
11112;DHT22;5609;49.466;8.468;2024-03-07T12:16:08;15.30;35.20
11112;DHT22;5609;49.466;8.468;2024-03-07T12:18:35;15.30;42.50
11112;DHT22;5609;49.466;8.468;2024-03-07T12:21:03;15.40;24.00
11112;DHT22;5609;49.466;8.468;2024-03-07T12:23:32;15.20;56.10
11112;DHT22;5609;49.466;8.468;2024-03-07T12:25:59;15.30;82.80
11112;DHT22;5609;49.466;8.468;2024-03-07T12:28:28;15.90;95.00
11112;DHT22;5609;49.466;8.468;2024-03-07T12:30:59;16.10;55.90
11112;DHT22;5609;49.466;8.468;2024-03-07T12:33:29;16.30;33.20
11112;DHT22;5609;49.466;8.468;2024-03-07T12:36:01;15.90;12.50
11112;DHT22;5609;49.466;8.468;2024-03-07T12:38:31;15.50;15.20
11112;DHT22;5609;49.466;8.468;2024-03-07T12:41:04;15.30;17.00
11112;DHT22;5609;49.466;8.468;2024-03-07T12:43:33;14.80;19.30
11112;DHT22;5609;49.466;8.468;2024-03-07T12:45:59;14.40;26.70
11112;DHT22;5609;49.466;8.468;2024-03-07T12:48:31;13.90;29.70
11112;DHT22;5609;49.466;8.468;2024-03-07T12:50:58;13.70;35.60
11112;DHT22;5609;49.466;8.468;2024-03-07T12:53:25;13.30;38.40
11112;DHT22;5609;49.466;8.468;2024-03-07T12:55:52;13.10;50.00
11112;DHT22;5609;49.466;8.468;2024-03-07T12:58:19;13.10;51.90
11112;DHT22;5609;49.466;8.468;2024-03-07T13:00:48;13.40;49.50
11112;DHT22;5609;49.466;8.468;2024-03-07T13:03:15;13.50;47.20
11112;DHT22;5609;49.466;8.468;2024-03-07T13:05:43;13.40;49.60
11112;DHT22;5609;49.466;8.468;2024-03-07T13:08:12;13.20;46.60
11112;DHT22;5609;49.466;8.468;2024-03-07T13:10:39;13.00;57.00
11112;DHT22;5609;49.466;8.468;2024-03-07T13:13:09;12.80;60.00
11112;DHT22;5609;49.466;8.468;2024-03-07T13:15:36;12.70;64.30
11112;DHT22;5609;49.466;8.468;2024-03-07T13:18:05;12.50;72.10
11112;DHT22;5609;49.466;8.468;2024-03-07T13:20:32;12.50;72.90
11112;DHT22;5609;49.466;8.468;2024-03-07T13:23:00;12.40;74.20
11112;DHT22;5609;49.466;8.468;2024-03-07T13:25:28;12.40;67.50
11112;DHT22;5609;49.466;8.468;2024-03-07T13:28:00;12.40;68.50
11112;DHT22;5609;49.466;8.468;2024-03-07T13:30:28;12.30;69.20
11112;DHT22;5609;49.466;8.468;2024-03-07T13:32:56;12.40;65.60
11112;DHT22;5609;49.466;8.468;2024-03-07T13:35:23;12.50;63.60
11112;DHT22;5609;49.466;8.468;2024-03-07T13:37:53;12.60;69.10
11112;DHT22;5609;49.466;8.468;2024-03-07T13:40:27;12.50;65.60
11112;DHT22;5609;49.466;8.468;2024-03-07T13:42:57;13.10;64.70
11112;DHT22;5609;49.466;8.468;2024-03-07T13:45:26;13.30;54.60
11112;DHT22;5609;49.466;8.468;2024-03-07T13:47:53;13.20;56.90
11112;DHT22;5609;49.466;8.468;2024-03-07T13:50:23;13.30;57.00
11112;DHT22;5609;49.466;8.468;2024-03-07T13:52:51;13.30;56.50
11112;DHT22;5609;49.466;8.468;2024-03-07T13:55:46;13.30;54.50
11112;DHT22;5609;49.466;8.468;2024-03-07T13:58:23;13.10;48.10
11112;DHT22;5609;49.466;8.468;2024-03-07T14:01:12;13.00;47.60
11112;DHT22;5609;49.466;8.468;2024-03-07T14:06:53;12.80;51.20
11112;DHT22;5609;49.466;8.468;2024-03-07T14:09:37;12.60;57.40
11112;DHT22;5609;49.466;8.468;2024-03-07T14:12:41;12.40;60.80
11112;DHT22;5609;49.466;8.468;2024-03-07T14:18:43;12.20;62.90
11112;DHT22;5609;49.466;8.468;2024-03-07T14:21:48;12.20;64.10
11112;DHT22;5609;49.466;8.468;2024-03-07T14:24:43;12.00;67.90
11112;DHT22;5609;49.466;8.468;2024-03-07T14:27:30;11.90;73.50
11112;DHT22;5609;49.466;8.468;2024-03-07T14:30:19;11.70;80.20
11112;DHT22;5609;49.466;8.468;2024-03-07T14:32:49;11.70;88.30
11112;DHT22;5609;49.466;8.468;2024-03-07T14:35:24;11.60;90.00
11112;DHT22;5609;49.466;8.468;2024-03-07T14:38:03;11.60;91.50
11112;DHT22;5609;49.466;8.468;2024-03-07T14:40:32;11.60;93.60
11112;DHT22;5609;49.466;8.468;2024-03-07T14:43:03;11.70;92.50
11112;DHT22;5609;49.466;8.468;2024-03-07T14:45:36;11.70;87.00
11112;DHT22;5609;49.466;8.468;2024-03-07T14:48:06;11.70;87.10
11112;DHT22;5609;49.466;8.468;2024-03-07T14:50:36;11.90;88.30
11112;DHT22;5609;49.466;8.468;2024-03-07T14:53:04;11.80;89.40
11112;DHT22;5609;49.466;8.468;2024-03-07T14:55:31;11.80;90.10
11112;DHT22;5609;49.466;8.468;2024-03-07T14:57:59;12.00;90.20
11112;DHT22;5609;49.466;8.468;2024-03-07T15:00:28;12.20;84.90
11112;DHT22;5609;49.466;8.468;2024-03-07T15:03:00;12.40;83.60
11112;DHT22;5609;49.466;8.468;2024-03-07T15:05:29;12.40;83.20
11112;DHT22;5609;49.466;8.468;2024-03-07T15:07:58;12.10;86.10
11112;DHT22;5609;49.466;8.468;2024-03-07T15:10:27;12.00;89.50
11112;DHT22;5609;49.466;8.468;2024-03-07T15:12:54;12.00;89.30
11112;DHT22;5609;49.466;8.468;2024-03-07T15:15:21;12.00;90.20
11112;DHT22;5609;49.466;8.468;2024-03-07T15:17:50;11.90;89.00
11112;DHT22;5609;49.466;8.468;2024-03-07T15:20:18;11.90;90.90
11112;DHT22;5609;49.466;8.468;2024-03-07T15:22:51;11.80;94.70
11112;DHT22;5609;49.466;8.468;2024-03-07T15:25:20;11.70;91.70
11112;DHT22;5609;49.466;8.468;2024-03-07T15:27:49;11.60;95.30
11112;DHT22;5609;49.466;8.468;2024-03-07T15:30:16;11.50;95.40
11112;DHT22;5609;49.466;8.468;2024-03-07T15:32:44;11.30;95.50
11112;DHT22;5609;49.466;8.468;2024-03-07T15:35:12;11.20;98.70
11112;DHT22;5609;49.466;8.468;2024-03-07T15:37:45;11.00;99.90
11112;DHT22;5609;49.466;8.468;2024-03-07T15:40:13;11.00;99.90
11112;DHT22;5609;49.466;8.468;2024-03-07T15:42:40;10.90;99.90
11112;DHT22;5609;49.466;8.468;2024-03-07T15:45:09;10.80;99.90
11112;DHT22;5609;49.466;8.468;2024-03-07T15:47:45;10.70;99.90
11112;DHT22;5609;49.466;8.468;2024-03-07T15:50:12;10.70;99.90
11112;DHT22;5609;49.466;8.468;2024-03-07T15:52:41;10.60;99.90
11112;DHT22;5609;49.466;8.468;2024-03-07T15:55:10;10.60;99.90
11112;DHT22;5609;49.466;8.468;2024-03-07T15:57:43;10.60;99.90
11112;DHT22;5609;49.466;8.468;2024-03-07T16:00:13;10.70;99.90
11112;DHT22;5609;49.466;8.468;2024-03-07T16:02:53;10.60;99.90
11112;DHT22;5609;49.466;8.468;2024-03-07T16:05:23;10.60;99.90
11112;DHT22;5609;49.466;8.468;2024-03-07T16:07:55;10.60;99.90
11112;DHT22;5609;49.466;8.468;2024-03-07T16:10:27;10.60;99.90
11112;DHT22;5609;49.466;8.468;2024-03-07T16:12:56;10.60;99.90
11112;DHT22;5609;49.466;8.468;2024-03-07T16:15:24;10.50;99.90
11112;DHT22;5609;49.466;8.468;2024-03-07T16:17:53;10.50;99.90
11112;DHT22;5609;49.466;8.468;2024-03-07T16:20:22;10.40;99.90
11112;DHT22;5609;49.466;8.468;2024-03-07T16:22:50;10.40;99.90
11112;DHT22;5609;49.466;8.468;2024-03-07T16:25:19;10.30;99.90
11112;DHT22;5609;49.466;8.468;2024-03-07T16:27:50;10.30;99.90
11112;DHT22;5609;49.466;8.468;2024-03-07T16:30:21;10.30;99.90
11112;DHT22;5609;49.466;8.468;2024-03-07T16:32:49;10.30;99.90
11112;DHT22;5609;49.466;8.468;2024-03-07T16:35:24;10.20;99.90
11112;DHT22;5609;49.466;8.468;2024-03-07T16:37:54;10.20;99.90
11112;DHT22;5609;49.466;8.468;2024-03-07T16:40:23;10.20;99.90
11112;DHT22;5609;49.466;8.468;2024-03-07T16:42:54;10.20;99.90
11112;DHT22;5609;49.466;8.468;2024-03-07T16:45:23;10.20;99.90
11112;DHT22;5609;49.466;8.468;2024-03-07T16:47:52;10.10;99.90
11112;DHT22;5609;49.466;8.468;2024-03-07T16:50:20;10.00;99.90
11112;DHT22;5609;49.466;8.468;2024-03-07T16:52:48;10.00;99.90
11112;DHT22;5609;49.466;8.468;2024-03-07T16:55:15;10.00;99.90
11112;DHT22;5609;49.466;8.468;2024-03-07T16:57:44;9.90;99.90
11112;DHT22;5609;49.466;8.468;2024-03-07T17:00:15;9.90;99.90
11112;DHT22;5609;49.466;8.468;2024-03-07T17:02:50;9.80;99.90
11112;DHT22;5609;49.466;8.468;2024-03-07T17:05:17;9.70;99.90
11112;DHT22;5609;49.466;8.468;2024-03-07T17:07:45;9.70;99.90
11112;DHT22;5609;49.466;8.468;2024-03-07T17:10:12;9.60;99.90
11112;DHT22;5609;49.466;8.468;2024-03-07T17:12:43;9.60;99.90
11112;DHT22;5609;49.466;8.468;2024-03-07T17:15:13;9.60;99.90
11112;DHT22;5609;49.466;8.468;2024-03-07T17:17:44;9.60;99.90
11112;DHT22;5609;49.466;8.468;2024-03-07T17:20:14;9.60;99.90
11112;DHT22;5609;49.466;8.468;2024-03-07T17:22:42;9.60;99.90
11112;DHT22;5609;49.466;8.468;2024-03-07T17:25:10;9.60;99.90
11112;DHT22;5609;49.466;8.468;2024-03-07T17:27:37;9.50;99.90
11112;DHT22;5609;49.466;8.468;2024-03-07T17:30:05;9.50;99.90
11112;DHT22;5609;49.466;8.468;2024-03-07T17:32:36;9.50;99.90
11112;DHT22;5609;49.466;8.468;2024-03-07T17:35:04;9.50;99.90
11112;DHT22;5609;49.466;8.468;2024-03-07T17:37:36;9.40;99.90
11112;DHT22;5609;49.466;8.468;2024-03-07T17:40:03;9.40;99.90
11112;DHT22;5609;49.466;8.468;2024-03-07T17:42:31;9.40;99.90
11112;DHT22;5609;49.466;8.468;2024-03-07T17:44:57;9.40;99.90
11112;DHT22;5609;49.466;8.468;2024-03-07T17:47:25;9.40;99.90
11112;DHT22;5609;49.466;8.468;2024-03-07T17:49:55;9.30;99.90
11112;DHT22;5609;49.466;8.468;2024-03-07T17:52:22;9.30;99.90
11112;DHT22;5609;49.466;8.468;2024-03-07T17:54:52;9.20;99.90
11112;DHT22;5609;49.466;8.468;2024-03-07T17:57:20;9.20;99.90
11112;DHT22;5609;49.466;8.468;2024-03-07T17:59:48;9.20;99.90
11112;DHT22;5609;49.466;8.468;2024-03-07T18:02:15;9.20;99.90
11112;DHT22;5609;49.466;8.468;2024-03-07T18:04:43;9.30;99.90
11112;DHT22;5609;49.466;8.468;2024-03-07T18:07:16;9.20;99.90
11112;DHT22;5609;49.466;8.468;2024-03-07T18:09:46;9.20;99.90
11112;DHT22;5609;49.466;8.468;2024-03-07T18:12:13;9.20;99.90
11112;DHT22;5609;49.466;8.468;2024-03-07T18:14:41;9.10;99.90
11112;DHT22;5609;49.466;8.468;2024-03-07T18:17:14;9.10;99.90
11112;DHT22;5609;49.466;8.468;2024-03-07T18:19:44;9.10;99.90
11112;DHT22;5609;49.466;8.468;2024-03-07T18:22:11;9.10;99.90
11112;DHT22;5609;49.466;8.468;2024-03-07T18:24:47;9.00;99.90
11112;DHT22;5609;49.466;8.468;2024-03-07T18:27:14;9.10;99.90
11112;DHT22;5609;49.466;8.468;2024-03-07T18:29:43;9.00;99.90
11112;DHT22;5609;49.466;8.468;2024-03-07T18:32:10;9.00;99.90
11112;DHT22;5609;49.466;8.468;2024-03-07T18:34:37;9.10;99.90
11112;DHT22;5609;49.466;8.468;2024-03-07T18:37:05;9.10;99.90
11112;DHT22;5609;49.466;8.468;2024-03-07T18:39:37;9.00;99.90
11112;DHT22;5609;49.466;8.468;2024-03-07T18:42:08;9.10;99.90
11112;DHT22;5609;49.466;8.468;2024-03-07T18:44:36;9.00;99.90
11112;DHT22;5609;49.466;8.468;2024-03-07T18:47:03;9.00;99.90
11112;DHT22;5609;49.466;8.468;2024-03-07T18:49:33;8.90;99.90
11112;DHT22;5609;49.466;8.468;2024-03-07T18:52:00;9.00;99.90
11112;DHT22;5609;49.466;8.468;2024-03-07T18:54:27;8.90;99.90
11112;DHT22;5609;49.466;8.468;2024-03-07T18:56:54;8.90;99.90
11112;DHT22;5609;49.466;8.468;2024-03-07T18:59:23;8.90;99.90
11112;DHT22;5609;49.466;8.468;2024-03-07T19:01:53;8.90;99.90
11112;DHT22;5609;49.466;8.468;2024-03-07T19:04:19;8.90;99.90
11112;DHT22;5609;49.466;8.468;2024-03-07T19:06:46;8.80;99.90
11112;DHT22;5609;49.466;8.468;2024-03-07T19:09:13;8.80;99.90
11112;DHT22;5609;49.466;8.468;2024-03-07T19:11:44;8.90;99.90
11112;DHT22;5609;49.466;8.468;2024-03-07T19:14:12;8.80;99.90
11112;DHT22;5609;49.466;8.468;2024-03-07T19:16:46;8.80;99.90
11112;DHT22;5609;49.466;8.468;2024-03-07T19:19:14;8.70;99.90
11112;DHT22;5609;49.466;8.468;2024-03-07T19:21:43;8.70;99.90
11112;DHT22;5609;49.466;8.468;2024-03-07T19:24:10;8.70;99.90
11112;DHT22;5609;49.466;8.468;2024-03-07T19:26:41;8.80;99.90
11112;DHT22;5609;49.466;8.468;2024-03-07T19:29:10;8.70;99.90
11112;DHT22;5609;49.466;8.468;2024-03-07T19:31:46;8.70;99.90
11112;DHT22;5609;49.466;8.468;2024-03-07T19:34:21;8.70;99.90
11112;DHT22;5609;49.466;8.468;2024-03-07T19:36:48;8.60;99.90
11112;DHT22;5609;49.466;8.468;2024-03-07T19:39:18;8.60;99.90
11112;DHT22;5609;49.466;8.468;2024-03-07T19:41:47;8.60;99.90
11112;DHT22;5609;49.466;8.468;2024-03-07T19:44:16;8.60;99.90
11112;DHT22;5609;49.466;8.468;2024-03-07T19:46:45;8.60;99.90
11112;DHT22;5609;49.466;8.468;2024-03-07T19:49:17;8.60;99.90
11112;DHT22;5609;49.466;8.468;2024-03-07T19:51:44;8.60;99.90
11112;DHT22;5609;49.466;8.468;2024-03-07T19:54:11;8.60;99.90
11112;DHT22;5609;49.466;8.468;2024-03-07T19:56:41;8.60;99.90
11112;DHT22;5609;49.466;8.468;2024-03-07T19:59:09;8.50;99.90
11112;DHT22;5609;49.466;8.468;2024-03-07T20:01:38;8.50;99.90
11112;DHT22;5609;49.466;8.468;2024-03-07T20:04:07;8.50;99.90
11112;DHT22;5609;49.466;8.468;2024-03-07T20:06:35;8.50;99.90
11112;DHT22;5609;49.466;8.468;2024-03-07T20:09:07;8.40;99.90
11112;DHT22;5609;49.466;8.468;2024-03-07T20:11:42;8.50;99.90
11112;DHT22;5609;49.466;8.468;2024-03-07T20:14:09;8.50;99.90